Time;durP1;ratioP1;P1;durP2;ratioP2;P2;SDS_P1;SDS_P2;PMS_P1;PMS_P2;Temp;Humidity;BMP_temperature;BMP_pressure;BME280_temperature;BME280_humidity;BME280_pressure;Samples;Min_cycle;Max_cycle;Signal;HPM_P1;HPM_P2
2022/05/06 00:01:43;;;;;;;28.08;14.60;;;;;;;9.33;77.88;102454.75;4975640;28;20050;-68
2022/05/06 00:04:09;;;;;;;36.63;15.45;;;;;;;9.31;78.05;102447.75;4974223;28;20141;-68
2022/05/06 00:06:35;;;;;;;27.45;15.48;;;;;;;8.99;79.46;102454.97;4974006;28;20042;-67
2022/05/06 00:09:00;;;;;;;28.40;15.00;;;;;;;8.95;79.37;102452.44;4975195;28;20125;-68
2022/05/06 00:11:26;;;;;;;33.45;16.10;;;;;;;8.60;82.01;102451.69;4975368;28;20078;-68
2022/05/06 00:13:52;;;;;;;36.63;16.30;;;;;;;8.69;81.71;102456.75;4975906;28;20034;-67
2022/05/06 00:16:22;;;;;;;31.17;16.13;;;;;;;8.96;81.05;102454.19;4975921;28;20117;-68
2022/05/06 00:18:48;;;;;;;36.03;17.73;;;;;;;8.89;79.92;102456.16;4975237;28;20034;-68
2022/05/06 00:21:14;;;;;;;31.55;16.75;;;;;;;8.89;80.40;102456.16;4973957;28;20046;-68
2022/05/06 00:23:40;;;;;;;31.83;15.52;;;;;;;8.76;78.95;102455.66;4974725;28;20149;-68
2022/05/06 00:26:06;;;;;;;27.10;13.32;;;;;;;8.75;78.64;102461.00;4974735;28;20049;-67
2022/05/06 00:28:31;;;;;;;32.25;15.80;;;;;;;8.71;79.31;102454.91;4975129;28;20054;-67
2022/05/06 00:30:57;;;;;;;33.53;16.10;;;;;;;8.91;79.42;102446.34;4973945;28;20759;-67
2022/05/06 00:33:26;;;;;;;32.88;16.50;;;;;;;8.93;79.10;102452.47;4973468;28;20049;-68
2022/05/06 00:35:56;;;;;;;30.63;16.10;;;;;;;8.84;79.66;102454.56;4974662;28;20046;-67
2022/05/06 00:38:24;;;;;;;34.72;16.05;;;;;;;8.65;80.23;102457.75;4971528;28;20035;-67
2022/05/06 00:40:50;;;;;;;28.25;14.85;;;;;;;8.59;80.01;102457.94;4955455;28;20038;-68
2022/05/06 00:43:16;;;;;;;32.75;16.35;;;;;;;8.66;80.29;102450.66;4953503;28;20229;-67
2022/05/06 00:45:54;;;;;;;41.25;18.13;;;;;;;9.03;79.83;102453.91;4937685;28;20476;-68
2022/05/06 00:48:25;;;;;;;43.90;21.20;;;;;;;8.96;80.83;102449.72;4954974;28;20081;-68
2022/05/06 00:50:51;;;;;;;40.00;20.00;;;;;;;8.89;79.93;102456.16;4937749;28;20053;-67
2022/05/06 00:53:17;;;;;;;41.55;18.33;;;;;;;8.67;80.44;102452.38;4966435;28;20038;-68
2022/05/06 00:55:43;;;;;;;32.10;16.05;;;;;;;8.60;81.22;102451.69;4974307;28;20030;-68
2022/05/06 00:58:09;;;;;;;30.55;15.00;;;;;;;8.68;80.93;102452.31;4974156;28;20038;-68
2022/05/06 01:00:35;;;;;;;28.45;14.40;;;;;;;8.65;80.62;102451.56;4974788;28;20849;-68
2022/05/06 01:03:01;;;;;;;34.85;16.73;;;;;;;8.70;79.86;102458.50;4974568;28;20043;-67
2022/05/06 01:05:27;;;;;;;32.38;16.52;;;;;;;8.55;80.25;102462.47;4940746;28;20255;-67
2022/05/06 01:07:53;;;;;;;25.95;13.68;;;;;;;8.53;79.47;102456.34;4973743;28;20038;-68
2022/05/06 01:10:20;;;;;;;36.45;16.85;;;;;;;8.62;80.26;102451.66;4955772;28;20038;-67
2022/05/06 01:12:47;;;;;;;39.38;20.00;;;;;;;8.70;81.08;102454.97;4956520;28;20149;-67
2022/05/06 01:15:22;;;;;;;42.70;18.48;;;;;;;8.51;80.95;102452.84;4955205;28;20041;-67
2022/05/06 01:17:52;;;;;;;29.83;15.48;;;;;;;8.42;79.93;102455.75;4956841;28;20128;-68
2022/05/06 01:20:19;;;;;;;26.10;14.80;;;;;;;8.09;79.21;102459.31;4973502;28;20096;-67
2022/05/06 01:22:46;;;;;;;33.45;14.93;;;;;;;8.28;80.40;102464.09;4955804;28;20069;-67
2022/05/06 01:25:12;;;;;;;27.33;15.57;;;;;;;8.16;81.01;102460.88;4935805;28;20937;-67
2022/05/06 01:27:45;;;;;;;25.42;13.82;;;;;;;8.03;80.88;102463.91;4936044;28;20031;-69
2022/05/06 01:30:47;;;;;;;31.00;14.45;;;;;;;8.11;81.75;102466.31;4954119;28;20660;-67
2022/05/06 01:33:18;;;;;;;30.20;15.90;;;;;;;8.13;82.52;102464.50;4953360;28;20046;-67
2022/05/06 01:35:46;;;;;;;39.28;17.52;;;;;;;8.22;81.46;102466.91;4953170;28;20456;-67
2022/05/06 01:38:18;;;;;;;37.25;18.05;;;;;;;7.99;82.79;102467.53;4937037;28;20066;-67
2022/05/06 01:40:54;;;;;;;38.83;17.50;;;;;;;8.09;82.37;102465.50;4956646;28;20645;-67
2022/05/06 01:43:24;;;;;;;35.03;18.42;;;;;;;8.28;81.17;102472.06;4955415;28;20053;-68
2022/05/06 01:45:52;;;;;;;37.63;16.08;;;;;;;8.30;81.60;102472.88;4955889;28;20031;-68
2022/05/06 01:48:19;;;;;;;34.05;16.98;;;;;;;8.27;81.53;102470.31;4955225;28;20043;-65
2022/05/06 01:50:49;;;;;;;23.95;12.95;;;;;;;8.19;80.51;102471.44;4955310;28;20034;-67
2022/05/06 01:53:18;;;;;;;33.92;16.98;;;;;;;8.22;81.34;102471.34;4956177;28;20077;-68
2022/05/06 01:55:46;;;;;;;41.45;18.75;;;;;;;8.14;81.37;102473.34;4959926;28;20125;-67
2022/05/06 01:58:14;;;;;;;34.42;18.52;;;;;;;8.08;81.90;102478.81;4959037;28;20138;-67
2022/05/06 02:00:45;;;;;;;35.60;17.30;;;;;;;8.03;81.86;102478.94;4959268;28;20856;-67
2022/05/06 02:06:05;;;;;;;37.45;18.98;;;;;;;8.10;81.95;102479.66;4958824;28;20849;-65
2022/05/06 02:08:34;;;;;;;38.70;17.05;;;;;;;7.86;80.88;102478.50;4959013;28;20034;-68
2022/05/06 02:11:01;;;;;;;31.48;15.18;;;;;;;7.76;80.63;102467.25;4959200;28;20042;-68
2022/05/06 02:13:27;;;;;;;30.55;15.13;;;;;;;7.78;80.41;102470.72;4958483;28;20082;-67
2022/05/06 02:16:12;;;;;;;35.50;17.00;;;;;;;7.82;80.93;102463.56;4960920;28;20149;-68
2022/05/06 02:18:59;;;;;;;27.95;15.25;;;;;;;7.89;81.38;102462.50;4945413;28;20153;-67
2022/05/06 02:21:36;;;;;;;34.15;17.73;;;;;;;8.02;81.91;102470.09;4949141;28;20049;-68
2022/05/06 02:24:12;;;;;;;39.08;19.80;;;;;;;7.86;82.34;102467.88;4938760;28;20042;-68
2022/05/06 02:26:56;;;;;;;30.58;15.82;;;;;;;7.75;81.25;102474.34;4958293;28;20488;-67
2022/05/06 02:29:21;;;;;;;29.40;16.73;;;;;;;7.86;80.38;102470.53;4939785;28;20034;-68
2022/05/06 02:34:52;;;;;;;34.22;17.70;;;;;;;7.91;82.26;102471.28;4862801;29;20060;-66
2022/05/06 02:37:18;;;;;;;38.70;18.10;;;;;;;7.93;81.64;102469.47;4862399;29;20040;-67
2022/05/06 02:39:48;;;;;;;32.13;15.15;;;;;;;7.79;81.87;102465.41;4891852;29;20124;-66
2022/05/06 02:42:19;;;;;;;28.30;14.40;;;;;;;7.62;80.67;102458.75;4895730;29;20112;-66
2022/05/06 02:44:48;;;;;;;24.63;13.27;;;;;;;7.42;80.15;102467.22;4881342;29;20050;-67
2022/05/06 02:47:14;;;;;;;25.80;13.85;;;;;;;7.30;80.95;102464.88;4878734;29;20093;-67
2022/05/06 02:49:41;;;;;;;23.83;13.55;;;;;;;7.29;81.15;102469.28;4880211;29;20577;-66
2022/05/06 02:52:09;;;;;;;29.27;14.40;;;;;;;7.40;81.93;102472.56;4894976;29;20171;-66
2022/05/06 02:54:36;;;;;;;28.83;14.80;;;;;;;7.35;82.48;102469.16;4894395;29;20055;-66
2022/05/06 02:57:02;;;;;;;32.85;15.30;;;;;;;7.35;82.93;102463.84;4879612;29;20131;-65
2022/05/06 02:59:31;;;;;;;27.58;15.63;;;;;;;7.29;82.61;102461.34;4879974;29;20105;-67
2022/05/06 03:01:57;;;;;;;26.33;14.43;;;;;;;7.32;82.39;102463.91;4879101;29;20111;-65
2022/05/06 03:04:23;;;;;;;27.35;14.35;;;;;;;7.32;81.27;102466.56;4879163;29;20051;-67
2022/05/06 03:06:49;;;;;;;27.77;13.30;;;;;;;7.26;81.61;102462.25;4935562;28;20115;-67
2022/05/06 03:09:28;;;;;;;27.77;14.05;;;;;;;7.19;81.48;102460.69;4937470;28;20035;-65
2022/05/06 03:11:54;;;;;;;19.08;11.55;;;;;;;7.04;80.91;102462.81;4938110;28;20039;-67
2022/05/06 03:14:21;;;;;;;18.27;9.95;;;;;;;7.03;80.89;102461.03;4937519;28;20039;-67
2022/05/06 03:17:10;;;;;;;21.95;11.63;;;;;;;7.07;80.78;102460.06;4941888;28;20058;-67
2022/05/06 03:19:35;;;;;;;18.38;10.63;;;;;;;7.10;80.57;102462.66;4938235;28;20062;-67
2022/05/06 03:22:02;;;;;;;23.50;12.93;;;;;;;7.09;81.26;102464.44;4967453;28;20849;-67
2022/05/06 03:24:27;;;;;;;17.88;10.32;;;;;;;7.05;81.13;102462.78;4973965;28;20491;-67
2022/05/06 03:26:54;;;;;;;15.07;8.65;;;;;;;7.04;80.66;102457.50;4956671;28;20216;-67
2022/05/06 03:29:20;;;;;;;18.20;9.05;;;;;;;7.11;81.80;102457.31;4972934;28;20380;-67
2022/05/06 03:31:46;;;;;;;18.17;10.52;;;;;;;7.12;81.88;102464.38;4954233;28;20289;-68
2022/05/06 03:34:12;;;;;;;21.48;12.60;;;;;;;7.15;81.81;102460.78;4955568;28;20030;-67
2022/05/06 03:36:41;;;;;;;24.45;12.93;;;;;;;7.21;80.86;102463.28;4941269;28;20216;-67
2022/05/06 03:39:10;;;;;;;29.25;14.88;;;;;;;7.14;82.04;102465.22;4956772;28;20046;-67
2022/05/06 03:41:43;;;;;;;26.20;13.00;;;;;;;7.14;80.81;102465.22;4955460;28;20806;-67
2022/05/06 03:44:09;;;;;;;24.73;13.18;;;;;;;7.22;80.70;102462.38;4955886;28;20767;-67
2022/05/06 03:46:39;;;;;;;30.88;14.55;;;;;;;7.20;83.03;102466.84;4957021;28;20122;-67
2022/05/06 03:49:07;;;;;;;31.02;15.75;;;;;;;7.15;84.32;102463.44;4941498;28;20070;-67
2022/05/06 03:51:33;;;;;;;29.63;14.75;;;;;;;7.28;83.90;102467.56;4940650;28;20034;-67
2022/05/06 03:54:07;;;;;;;30.67;15.20;;;;;;;7.17;82.60;102456.31;4973297;28;20043;-67
2022/05/06 03:56:33;;;;;;;31.55;15.60;;;;;;;7.20;83.94;102467.72;4956482;28;20046;-68
2022/05/06 03:59:03;;;;;;;41.03;17.88;;;;;;;7.24;84.45;102460.56;4957108;28;20034;-67
2022/05/06 04:01:30;;;;;;;27.38;15.20;;;;;;;7.20;83.59;102464.19;4955897;28;20053;-67
2022/05/06 04:03:57;;;;;;;22.33;12.48;;;;;;;6.89;80.91;102470.19;4956169;28;20104;-67
2022/05/06 04:06:28;;;;;;;17.42;11.02;;;;;;;6.71;81.52;102474.09;4956600;28;20038;-68
2022/05/06 04:08:55;;;;;;;22.08;10.50;;;;;;;6.79;81.27;102473.09;4973770;28;20041;-68
2022/05/06 04:11:24;;;;;;;22.33;11.85;;;;;;;6.90;81.23;102479.03;4955667;28;20038;-66
2022/05/06 04:13:54;;;;;;;20.23;10.43;;;;;;;6.67;83.82;102475.06;4955855;28;20038;-66
2022/05/06 04:16:22;;;;;;;18.13;9.35;;;;;;;6.90;82.34;102477.25;4954558;28;20860;-66
2022/05/06 04:18:49;;;;;;;19.58;10.65;;;;;;;6.99;82.38;102476.19;4940404;28;20837;-66
2022/05/06 04:23:59;;;;;;;17.52;10.13;;;;;;;7.07;82.69;102470.69;4954738;28;20788;-67
2022/05/06 04:26:24;;;;;;;20.33;12.20;;;;;;;7.25;82.61;102478.22;4936312;28;20035;-67
2022/05/06 04:28:54;;;;;;;28.67;15.10;;;;;;;7.33;82.77;102472.72;4957895;28;20053;-67
2022/05/06 04:31:20;;;;;;;23.65;13.15;;;;;;;7.44;82.17;102479.56;4955483;28;20038;-67
2022/05/06 04:33:49;;;;;;;23.75;13.15;;;;;;;7.41;81.44;102478.75;4955470;28;20096;-66
2022/05/06 04:36:23;;;;;;;11.48;8.05;;;;;;;7.43;82.02;102477.81;4957013;28;20149;-66
2022/05/06 04:38:52;;;;;;;16.60;10.07;;;;;;;7.66;81.23;102479.00;4965510;28;20224;-66
2022/05/06 04:41:19;;;;;;;19.40;10.45;;;;;;;7.79;80.84;102478.69;4972341;28;20038;-67
2022/05/06 04:43:46;;;;;;;21.92;12.25;;;;;;;7.85;81.75;102482.97;4973642;28;20050;-66
2022/05/06 04:46:11;;;;;;;47.08;18.88;;;;;;;7.56;83.46;102485.47;4973650;28;20066;-66
2022/05/06 04:48:37;;;;;;;45.95;18.65;;;;;;;7.73;84.09;102488.56;4986836;28;20038;-67
2022/05/06 04:51:06;;;;;;;65.70;20.05;;;;;;;7.71;84.47;102485.94;4954906;28;20129;-67
2022/05/06 04:53:31;;;;;;;55.00;22.63;;;;;;;7.79;84.89;102484.00;4954740;28;20499;-67
2022/05/06 04:55:58;;;;;;;77.85;25.98;;;;;;;8.10;84.52;102491.16;4956621;28;20145;-66
2022/05/06 04:58:31;;;;;;;76.22;26.85;;;;;;;8.34;84.32;102486.09;4957545;28;20045;-66
2022/05/06 05:00:58;;;;;;;85.93;29.05;;;;;;;8.45;85.12;102489.38;4956912;28;20117;-66
2022/05/06 05:03:24;;;;;;;75.72;26.60;;;;;;;8.63;85.62;102494.13;4939678;28;20034;-66
2022/05/06 05:05:52;;;;;;;67.78;26.40;;;;;;;8.68;85.44;102505.50;4955815;28;20034;-66
2022/05/06 05:08:19;;;;;;;66.93;26.65;;;;;;;8.63;85.43;102498.59;4954532;28;21002;-66
2022/05/06 05:10:47;;;;;;;69.38;26.83;;;;;;;8.61;85.31;102508.41;4954074;28;20550;-66
2022/05/06 05:13:14;;;;;;;64.07;25.27;;;;;;;8.48;85.43;102511.44;4952949;28;20901;-66
2022/05/06 05:15:39;;;;;;;60.78;24.70;;;;;;;8.62;85.77;102516.34;4938902;28;20043;-66
2022/05/06 05:18:06;;;;;;;60.10;24.52;;;;;;;8.95;85.04;102516.28;4953952;28;20053;-67
2022/05/06 05:20:32;;;;;;;55.08;25.25;;;;;;;9.00;85.09;102509.03;4938209;28;20035;-66
2022/05/06 05:22:59;;;;;;;48.58;22.92;;;;;;;9.23;85.04;102516.31;4954195;28;20103;-66
2022/05/06 05:25:25;;;;;;;49.67;23.20;;;;;;;9.13;85.37;102521.03;4953906;28;20034;-67
2022/05/06 05:27:53;;;;;;;59.55;26.65;;;;;;;9.36;85.43;102514.16;4973579;28;20042;-67
2022/05/06 05:30:30;;;;;;;49.00;24.42;;;;;;;9.56;84.48;102512.59;4977507;28;20551;-66
2022/05/06 05:32:58;;;;;;;54.08;26.35;;;;;;;9.76;84.26;102508.41;4959462;28;20073;-67
2022/05/06 05:35:24;;;;;;;52.90;25.38;;;;;;;9.79;84.07;102519.84;4960970;28;20734;-66
2022/05/06 05:37:56;;;;;;;54.53;25.02;;;;;;;9.69;85.13;102521.06;4959496;28;20546;-66
2022/05/06 05:40:22;;;;;;;53.38;26.10;;;;;;;9.84;84.70;102523.22;4958666;28;20066;-67
2022/05/06 05:42:48;;;;;;;57.53;27.05;;;;;;;9.70;85.89;102524.59;4958387;28;20143;-67
2022/05/06 05:48:20;;;;;;;56.42;25.92;;;;;;;10.18;85.59;102521.19;4958786;28;20107;-66
2022/05/06 05:50:49;;;;;;;59.80;26.77;;;;;;;10.02;86.03;102519.06;4958445;28;20142;-67
2022/05/06 05:53:18;;;;;;;58.13;26.90;;;;;;;10.33;86.59;102512.69;4958378;28;20034;-67
2022/05/06 05:55:45;;;;;;;59.65;27.42;;;;;;;10.69;83.68;102510.47;4958453;28;20149;-66
2022/05/06 05:58:15;;;;;;;57.42;25.83;;;;;;;10.67;83.92;102523.00;4957306;28;20069;-66
2022/05/06 06:00:41;;;;;;;54.97;26.90;;;;;;;10.63;84.50;102521.38;4943337;28;20157;-67
2022/05/06 06:03:07;;;;;;;60.08;26.63;;;;;;;11.27;82.91;102524.28;4958236;28;20034;-67
2022/05/06 06:05:37;;;;;;;58.85;29.20;;;;;;;11.46;81.59;102503.06;4958925;28;20046;-67
2022/05/06 06:08:03;;;;;;;53.38;26.20;;;;;;;11.44;81.90;102506.72;4957955;28;20515;-66
2022/05/06 06:10:31;;;;;;;55.47;26.88;;;;;;;11.65;80.08;102506.72;4957265;28;20416;-67
2022/05/06 06:13:04;;;;;;;57.65;27.25;;;;;;;11.61;81.66;102504.25;4958997;28;20843;-66
2022/05/06 06:15:31;;;;;;;55.97;26.63;;;;;;;11.62;80.92;102504.16;4958541;28;20068;-66
2022/05/06 06:17:57;;;;;;;60.65;27.95;;;;;;;11.56;81.39;102511.56;4976000;28;20034;-67
2022/05/06 06:20:24;;;;;;;55.95;26.15;;;;;;;11.59;80.63;102508.75;4958102;28;20080;-66
2022/05/06 06:22:50;;;;;;;52.80;26.15;;;;;;;11.72;80.60;102509.13;4958479;28;20046;-67
2022/05/06 06:25:16;;;;;;;53.75;25.33;;;;;;;11.99;80.54;102508.00;4956604;28;20400;-67
2022/05/06 06:27:43;;;;;;;52.95;24.90;;;;;;;12.38;79.36;102512.56;4958154;28;20034;-67
2022/05/06 06:30:11;;;;;;;51.20;23.80;;;;;;;12.64;78.32;102506.91;4957545;28;20049;-67
2022/05/06 06:32:36;;;;;;;48.22;24.48;;;;;;;12.37;79.50;102508.16;4957950;28;20045;-68
2022/05/06 06:35:05;;;;;;;50.15;25.50;;;;;;;12.07;80.40;102516.56;4957152;28;20035;-67
2022/05/06 06:37:42;;;;;;;47.35;24.30;;;;;;;12.06;80.09;102514.84;4957839;28;20768;-66
2022/05/06 06:40:08;;;;;;;52.53;25.83;;;;;;;12.52;78.96;102518.19;4956884;28;20065;-67
2022/05/06 06:42:34;;;;;;;51.33;24.17;;;;;;;12.99;77.31;102514.25;4956718;28;20161;-67
2022/05/06 06:45:07;;;;;;;42.17;21.10;;;;;;;12.79;77.21;102517.84;4956789;28;20042;-67
2022/05/06 06:48:02;;;;;;;41.33;21.83;;;;;;;12.75;77.23;102516.25;4960701;28;20147;-67
2022/05/06 06:50:53;;;;;;;45.72;21.35;;;;;;;13.71;76.05;102519.75;4958184;28;20358;-67
2022/05/06 06:53:22;;;;;;;37.10;20.48;;;;;;;13.98;73.68;102528.22;4975329;28;20054;-66
2022/05/06 06:55:48;;;;;;;40.38;21.70;;;;;;;13.60;75.05;102528.28;4975469;28;20930;-67
2022/05/06 06:58:14;;;;;;;39.25;20.88;;;;;;;14.33;72.79;102533.59;4973453;28;20105;-66
2022/05/06 07:00:42;;;;;;;39.15;21.05;;;;;;;13.94;72.57;102540.03;4974026;28;20034;-67
2022/05/06 07:03:08;;;;;;;40.45;21.20;;;;;;;14.17;72.54;102539.75;4973682;28;20108;-67
2022/05/06 07:05:34;;;;;;;43.08;20.63;;;;;;;14.51;71.09;102532.66;4974568;28;20153;-67
2022/05/06 07:13:29;;;;;;;41.40;20.80;;;;;;;14.56;71.52;102545.81;4975830;28;20070;-67
2022/05/06 07:15:54;;;;;;;39.38;19.63;;;;;;;14.36;71.51;102549.53;4974606;28;20047;-67
2022/05/06 07:18:20;;;;;;;35.83;20.02;;;;;;;14.22;72.30;102544.88;4974892;28;20101;-67
2022/05/06 07:20:45;;;;;;;41.42;21.75;;;;;;;14.57;71.63;102548.44;4974742;28;20093;-67
2022/05/06 07:23:10;;;;;;;38.58;20.02;;;;;;;14.99;72.30;102545.25;4973055;28;20369;-66
2022/05/06 07:25:37;;;;;;;40.63;20.98;;;;;;;14.90;70.65;102550.25;4974050;28;20481;-67
2022/05/06 07:28:03;;;;;;;38.42;20.73;;;;;;;14.66;71.91;102555.13;4973583;28;20042;-67
2022/05/06 07:30:29;;;;;;;40.47;21.77;;;;;;;14.28;72.51;102554.44;4973233;28;20038;-67
2022/05/06 07:32:54;;;;;;;39.00;20.55;;;;;;;15.25;69.87;102540.25;4973024;28;20035;-67
2022/05/06 07:35:20;;;;;;;39.35;20.23;;;;;;;15.51;69.19;102541.47;4975487;28;20554;-67
2022/05/06 07:37:46;;;;;;;35.88;19.88;;;;;;;15.31;69.19;102547.97;4973798;28;20045;-66
2022/05/06 07:40:11;;;;;;;41.90;22.42;;;;;;;16.33;67.80;102543.00;4972576;28;20042;-66
2022/05/06 07:42:42;;;;;;;39.78;20.73;;;;;;;16.07;67.04;102547.25;4972810;28;20156;-67
2022/05/06 07:45:08;;;;;;;41.03;20.98;;;;;;;15.77;68.89;102548.09;4973174;28;20070;-66
2022/05/06 07:47:33;;;;;;;40.30;21.60;;;;;;;16.00;67.43;102544.06;4959491;28;20056;-66
2022/05/06 07:49:59;;;;;;;38.85;22.45;;;;;;;15.77;68.05;102548.09;4958730;28;20042;-66
2022/05/06 07:52:25;;;;;;;40.45;20.80;;;;;;;16.63;65.64;102557.28;4976201;28;20038;-66
2022/05/06 07:54:50;;;;;;;39.22;21.23;;;;;;;16.86;65.12;102550.50;4975956;28;20069;-68
2022/05/06 07:57:15;;;;;;;40.92;20.55;;;;;;;16.89;65.99;102546.75;4955824;28;21051;-66
2022/05/06 07:59:41;;;;;;;44.83;22.90;;;;;;;17.11;64.65;102546.25;4957215;28;20046;-66
2022/05/06 08:04:50;;;;;;;42.92;21.83;;;;;;;16.53;66.14;102548.91;4974092;28;20118;-66
2022/05/06 08:07:16;;;;;;;42.17;22.05;;;;;;;16.85;65.56;102556.00;4975659;28;20472;-67
2022/05/06 08:09:42;;;;;;;45.38;23.75;;;;;;;17.57;63.53;102541.44;4972031;28;20484;-66
2022/05/06 08:12:09;;;;;;;45.63;23.60;;;;;;;17.17;64.99;102551.25;4974676;28;20081;-67
2022/05/06 08:14:35;;;;;;;42.63;22.25;;;;;;;18.49;61.56;102549.63;4974568;28;20388;-67
2022/05/06 08:17:01;;;;;;;43.60;22.92;;;;;;;17.90;63.08;102551.00;4974135;28;20557;-66
2022/05/06 08:19:26;;;;;;;43.03;21.90;;;;;;;17.35;63.65;102547.38;4956572;28;20042;-66
2022/05/06 08:21:52;;;;;;;45.45;24.05;;;;;;;17.88;62.22;102551.13;4973805;28;20061;-66
2022/05/06 08:24:18;;;;;;;46.38;23.60;;;;;;;17.30;63.04;102549.50;4970763;28;20587;-66
2022/05/06 08:26:44;;;;;;;42.28;22.27;;;;;;;17.12;65.20;102546.19;4956654;28;20105;-66
2022/05/06 08:29:10;;;;;;;43.67;23.25;;;;;;;18.44;63.96;102549.09;4971298;28;20729;-67
2022/05/06 08:31:37;;;;;;;42.63;22.75;;;;;;;18.28;61.61;102549.28;4971412;28;20045;-67
2022/05/06 08:34:07;;;;;;;43.13;22.98;;;;;;;18.66;61.77;102553.84;4970304;28;20141;-67
2022/05/06 08:36:34;;;;;;;41.22;23.30;;;;;;;17.79;61.91;102552.59;4970697;28;20034;-67
2022/05/06 08:39:00;;;;;;;39.40;21.70;;;;;;;17.39;64.35;102561.53;4972612;28;20061;-67
2022/05/06 08:41:27;;;;;;;41.85;21.75;;;;;;;17.30;63.74;102554.91;4969568;28;20157;-67
2022/05/06 08:43:52;;;;;;;35.90;20.27;;;;;;;17.88;64.09;102555.66;4971852;28;20559;-67
2022/05/06 08:51:52;;;;;;;35.65;19.40;;;;;;;18.90;59.00;102545.88;4972935;28;20775;-67
2022/05/06 08:54:18;;;;;;;40.15;20.85;;;;;;;18.94;61.14;102538.41;4970214;28;20096;-68
2022/05/06 08:56:44;;;;;;;37.58;20.25;;;;;;;18.94;62.28;102538.41;4971009;28;20034;-67
2022/05/06 08:59:09;;;;;;;35.33;19.00;;;;;;;18.86;61.50;102537.09;4970529;28;20728;-67
2022/05/06 09:01:35;;;;;;;34.45;18.83;;;;;;;19.26;60.24;102527.97;4971383;28;20053;-67
2022/05/06 09:04:00;;;;;;;33.92;16.98;;;;;;;18.80;62.06;102536.69;4970167;28;20849;-67
2022/05/06 09:06:29;;;;;;;30.23;17.58;;;;;;;17.88;62.68;102536.75;4970557;28;20042;-67
2022/05/06 09:08:59;;;;;;;30.10;15.68;;;;;;;18.16;60.13;102536.59;4971631;28;20057;-67
2022/05/06 09:14:15;;;;;;;32.33;17.23;;;;;;;18.11;61.91;102536.06;4971853;28;20046;-67
2022/05/06 09:16:41;;;;;;;29.08;17.08;;;;;;;18.37;62.21;102534.25;4972812;28;20046;-67
2022/05/06 09:19:21;;;;;;;29.35;16.27;;;;;;;18.84;61.57;102532.81;4972903;28;20125;-67
2022/05/06 09:22:11;;;;;;;29.33;15.43;;;;;;;18.89;60.83;102530.63;4972632;28;20046;-67
2022/05/06 09:24:38;;;;;;;27.63;14.82;;;;;;;19.26;60.67;102528.81;4971903;28;20042;-67
2022/05/06 09:27:08;;;;;;;25.02;14.20;;;;;;;18.88;58.79;102531.63;4971407;28;20118;-67
2022/05/06 09:29:42;;;;;;;26.17;14.07;;;;;;;18.53;62.36;102534.94;4971655;28;20138;-66
2022/05/06 09:32:17;;;;;;;21.23;12.38;;;;;;;18.30;60.30;102533.81;4971100;28;20698;-67
2022/05/06 09:34:45;;;;;;;24.15;13.70;;;;;;;18.54;61.18;102533.09;4969854;28;20065;-67
2022/05/06 09:37:11;;;;;;;21.33;13.13;;;;;;;18.64;60.25;102532.34;4972344;28;20042;-67
2022/05/06 09:39:39;;;;;;;20.90;12.55;;;;;;;19.11;59.30;102519.97;4972173;28;20049;-67
2022/05/06 09:42:08;;;;;;;24.70;12.93;;;;;;;18.96;58.66;102520.22;4971345;28;20589;-66
2022/05/06 09:44:34;;;;;;;20.15;11.52;;;;;;;18.93;58.43;102531.28;4952102;28;20801;-67
2022/05/06 09:47:08;;;;;;;20.00;12.45;;;;;;;19.27;59.45;102519.72;4935884;28;20045;-67
2022/05/06 09:49:41;;;;;;;19.10;11.30;;;;;;;19.00;58.92;102522.59;4952755;28;20043;-67
2022/05/06 09:52:11;;;;;;;19.23;11.35;;;;;;;18.81;57.89;102528.47;4952881;28;20050;-67
2022/05/06 09:54:40;;;;;;;18.23;10.82;;;;;;;19.07;58.51;102526.59;4935694;28;20058;-67
2022/05/06 09:57:06;;;;;;;21.17;11.07;;;;;;;18.92;57.55;102518.72;4935221;28;20562;-67
2022/05/06 09:59:32;;;;;;;17.77;10.93;;;;;;;19.05;57.96;102516.88;4953347;28;20035;-67
2022/05/06 10:01:58;;;;;;;18.80;11.27;;;;;;;18.96;57.41;102510.28;4952655;28;20089;-67
2022/05/06 10:04:23;;;;;;;20.80;10.27;;;;;;;18.77;57.81;102508.03;4952361;28;20094;-67
2022/05/06 10:06:49;;;;;;;16.90;10.32;;;;;;;18.93;58.21;102506.97;4953773;28;20050;-67
2022/05/06 10:09:19;;;;;;;18.50;10.18;;;;;;;18.84;61.14;102506.63;4935081;28;20062;-67
2022/05/06 10:11:46;;;;;;;18.15;10.07;;;;;;;18.42;58.05;102506.94;4954116;28;20074;-67
2022/05/06 10:14:14;;;;;;;15.05;10.05;;;;;;;18.82;58.18;102500.44;4953824;28;20078;-67
2022/05/06 10:16:41;;;;;;;15.10;9.07;;;;;;;19.15;56.61;102501.69;4956380;28;20146;-67
2022/05/06 10:19:26;;;;;;;18.67;9.88;;;;;;;19.65;55.22;102492.56;4957235;28;20864;-68
2022/05/06 10:21:55;;;;;;;13.80;8.73;;;;;;;19.37;56.46;102495.56;4927985;29;20090;-68
2022/05/06 10:24:20;;;;;;;14.07;8.13;;;;;;;19.88;54.62;102498.06;4936702;29;20039;-68
2022/05/06 10:26:48;;;;;;;14.18;9.07;;;;;;;19.57;53.85;102494.94;4937634;29;20047;-68
2022/05/06 10:32:56;;;;;;;13.95;8.40;;;;;;;19.78;54.06;102481.69;4918002;29;20047;-67
2022/05/06 10:35:39;;;;;;;8.23;6.05;;;;;;;19.93;51.54;102490.47;4936429;28;20053;-67
2022/05/06 10:38:24;;;;;;;7.82;5.30;;;;;;;19.91;50.79;102485.16;4902655;28;20043;-67
2022/05/06 10:40:54;;;;;;;10.27;5.80;;;;;;;20.24;52.04;102480.84;4955527;28;20781;-68
2022/05/06 10:43:41;;;;;;;12.60;6.88;;;;;;;20.16;52.07;102485.97;4963847;28;20054;-67
2022/05/06 10:46:07;;;;;;;6.10;4.05;;;;;;;20.05;50.17;102486.81;4974380;28;20046;-68
2022/05/06 10:48:33;;;;;;;6.68;4.47;;;;;;;20.32;50.66;102485.63;4957884;28;20534;-68
2022/05/06 10:51:21;;;;;;;9.52;5.85;;;;;;;19.95;50.94;102484.94;4974508;28;20026;-68
2022/05/06 10:53:47;;;;;;;6.55;5.03;;;;;;;20.26;49.94;102486.13;4974474;28;20042;-67
2022/05/06 10:56:14;;;;;;;9.80;5.75;;;;;;;20.50;49.74;102484.22;4970764;28;20036;-67
2022/05/06 10:58:40;;;;;;;8.65;5.80;;;;;;;20.29;50.38;102481.34;4975988;28;20464;-67
2022/05/06 11:01:05;;;;;;;6.70;4.75;;;;;;;19.99;52.06;102471.03;4956618;28;20050;-67
2022/05/06 11:03:31;;;;;;;6.35;4.80;;;;;;;20.67;51.76;102478.31;4975587;28;20038;-67
2022/05/06 11:05:56;;;;;;;6.75;5.32;;;;;;;20.78;49.42;102472.00;4976292;28;20081;-67
2022/05/06 11:08:32;;;;;;;7.28;4.63;;;;;;;20.72;51.60;102460.81;4974916;28;20057;-67
2022/05/06 11:10:58;;;;;;;5.72;4.28;;;;;;;20.73;50.40;102476.09;4974908;28;20715;-67
2022/05/06 11:13:25;;;;;;;5.20;3.42;;;;;;;20.93;50.57;102468.09;4957724;28;20069;-68
2022/05/06 11:15:51;;;;;;;7.35;4.10;;;;;;;20.99;48.71;102464.00;4975179;28;20046;-68
2022/05/06 11:18:18;;;;;;;5.07;3.83;;;;;;;20.56;50.37;102470.19;4974562;28;20042;-67
2022/05/06 11:20:44;;;;;;;6.43;3.78;;;;;;;20.96;49.15;102450.69;4976266;28;20469;-67
2022/05/06 11:23:11;;;;;;;5.18;3.58;;;;;;;21.59;46.63;102459.94;4975498;28;20053;-69
2022/05/06 11:25:44;;;;;;;4.70;3.55;;;;;;;20.56;48.61;102463.91;4974967;28;20053;-67
2022/05/06 11:28:13;;;;;;;4.88;3.60;;;;;;;20.73;47.68;102462.53;4973668;28;20057;-67
2022/05/06 11:30:42;;;;;;;4.15;3.28;;;;;;;20.39;47.14;102459.78;4973915;28;20023;-67
2022/05/06 11:33:08;;;;;;;5.85;3.75;;;;;;;20.61;51.82;102453.53;4971535;28;20038;-67
2022/05/06 11:35:46;;;;;;;3.95;3.28;;;;;;;21.36;53.01;102450.13;4975677;28;20049;-67
2022/05/06 11:38:12;;;;;;;3.88;3.47;;;;;;;21.57;48.50;102456.47;4987388;28;20057;-67
2022/05/06 11:40:38;;;;;;;5.05;4.50;;;;;;;21.03;46.56;102449.19;4967359;28;20034;-69
2022/05/06 11:43:19;;;;;;;4.30;3.63;;;;;;;20.89;47.62;102450.34;4979263;28;20053;-68
2022/05/06 11:48:31;;;;;;;4.07;3.15;;;;;;;21.38;46.67;102440.88;4989879;28;20093;-67
2022/05/06 11:51:00;;;;;;;4.30;3.42;;;;;;;21.45;48.53;102442.09;4979335;28;20034;-68
2022/05/06 11:53:27;;;;;;;6.32;4.47;;;;;;;21.16;46.64;102441.78;4987147;28;20034;-67
2022/05/06 11:55:55;;;;;;;4.53;3.80;;;;;;;21.41;49.08;102432.47;4978240;28;20065;-67